Terminal Aerodrome Forecast
Issued by NWS

Home | Current Version | Previous Version | Text Only | Print | Product List | Glossary On
Versions: 1 2 3 4 5 6 7 8 9 10 11 12 13
000
FTUS44 KTSA 301122
TAFRVS
TAF
KRVS 301122Z 3012/3112 03004KT P6SM SCT090
     FM301500 05006KT P6SM SCT090 BKN250
     FM301900 06006KT P6SM SCT050 BKN250 PROB30 3021/3103 4SM -TSRA
      BKN050CB
     FM310300 04003KT P6SM SCT100 BKN250=

USA.gov is the U.S. government's official web portal to all federal, state and local government web resources and services.